Elberon, IA

5:49 PM CDT on September 25, 2016 (GMT -0500)
IADOT | | Change Station
Active Advisory: Flood Warning

Elev 822 ft 41.96 °N, 92.30 °W | Updated 48 minutes ago

Scattered Clouds
Scattered Clouds
65.0 °F
Feels Like 65.0 °F
N
7.0
Wind Variable Wind from West
Gusts 13.0 mph

Today
High -- | Low -- °F
--% Chance of Precip.
Yesterday
High -- | Low -- °F
Precip. -- in
Pressure 30.00 in
Visibility 10.0 miles
Clouds Scattered Clouds 4400 ft
Dew Point 53.0 °F
Humidity 63%
Rainfall in
Snow Depth Not available.
7:00 AM 7:00 PM
Waning Crescent, 24% visible
METAR KVTI 252235Z AUTO 26008G15KT 10SM SCT044 20/11 A3000 RMK AO2
Pressure 30.00 in
Visibility 10.0 miles
Clouds Scattered Clouds 4400 ft
Dew Point 53.0 °F
Humidity 63%
Rainfall in
Snow Depth Not available.
7:00 AM 7:00 PM
Waning Crescent, 24% visible
METAR KVTI 252235Z AUTO 26008G15KT 10SM SCT044 20/11 A3000 RMK AO2

10-Day Weather Forecast

Almanac

Astronomy

Sep. 25, 2016 Rise Set
Actual Time
Civil Twilight
Nautical Twilight
Astronomical Twilight
Moon
Length of Visible Light
Length of Day
Tomorrow will be .
, % of the Moon is Illuminated

Today's Extremes

State Highs State Lows

Community

WunderPhotos

Upload Photos

1,941,761 photos uploaded!

WunderBlog® & News

Nearby

Air Quality

  Air Quality AQ Index Pollutant
Not available.

Snow Depth

Station Depth Elevation

Earthquake Activity

City Distance Mag. Time & Date
Minimum magnitude displayed is 2.5.

Coastal Water Temperatures

Place Temperature

Stations

Nearby Weather Stations

Station Location Temp. Windchill Dew Point Humidity Wind Precip. Elev Updated Type
                   

Watches & Warnings

Flood Warning
Issued: 4:26 PM CDT Sep. 25, 2016 – National Weather Service

... Flood Warning remains in effect until Friday morning...

The Flood Warning continues for
the Iowa river near Tama Hwy e49... or from Timber Creek near Le
Grand... to Salt Creek near Belle Plaine.
* Until Friday morning.
* At 4:00 PM Sunday the stage was 12.1 feet... or 0.4 feet below
flood stage.
* Flood stage is 12.5 feet.
* No flooding is occurring and moderate flooding is forecast.
* Forecast... rise to flood stage Monday evening. Continue rising to
13.0 feet... or 0.5 feet above flood stage... early Wednesday
morning. Then begin falling and go below flood stage Friday
morning.
* Impact... at 13.0 feet... water may begin affecting the outside lanes
of portions of US 30. Water covers several County roads.


Lat... Lon 4200 9277 4205 9277 4190 9230 4186 9230
      4200 9277


KS